Tropical Cyclones
[Index]
Main Index Home Page Stock Weather Photos Extreme Storms Discussion Storm News and Storm Chasing Reports Tropical Cyclones / Hurricanes / Typhoons Weather Data and Links Wild Fires / Bushfires Weather Observation Techniques Weather Picture Catalogue Tornado Pictures and Reports Stock Video Footage and DVDs for sale
Season 2004-2005 Tropical Cyclone PERCY Track Map
Season 2004-2005 Summaries (Operational Data): [AU] [SIO] [SPAC] [SH]
<<- Previous TC | 2004-2005 Season | Next TC ->>

click for intensity scale information  Lat/long Grid: Show Hide

 Date Labels: Show Hide

Operational Tropical Cyclone Data : JTWC Advisories

Name: PERCY
Number: 0520

24 Feb 2005 21:00 UTC to 05 Mar 2005 12:00 UTC

    date/time    lat    long     hPa   cat  kts
2005-02-24 21    8.3   179.0W    997         30          
2005-02-25 00    8.5   178.4W    995    1    35          
2005-02-25 06    8.6   177.7W    985    2    50          
2005-02-25 12    8.9   176.5W    975    2    60          
2005-02-25 18    9.0   175.0W    960    3    75          
2005-02-26 00    9.3   173.9W    950    3    80          
2005-02-26 06    9.8   172.9W    955    3    80          
2005-02-26 12   10.3   171.5W    955    3    80          
2005-02-26 18   10.5   170.8W    940    4    90          
2005-02-27 00   10.8   169.6W    925    4   100          
2005-02-27 06   11.1   168.6W    925    4   100          
2005-02-27 12   11.0   167.6W    925    4   100          
2005-02-27 18   11.0   166.4W    935    4    90          
2005-02-28 00   11.3   165.5W    945    3    85          
2005-02-28 06   12.0   165.4W    945    3    85          
2005-02-28 12   12.3   165.0W    940    4    90          
2005-02-28 18   12.6   165.0W    940    4    90          
2005-03-01 00   13.2   165.0W    935    4    90          
2005-03-01 06   13.7   165.2W    935    4    90          
2005-03-01 12   13.8   165.1W    930    4    95          
2005-03-01 18   14.9   164.9W    915    5   115          
2005-03-02 00   15.7   165.4W    900    5   125          
2005-03-02 06   16.2   165.3W    900    5   125          
2005-03-02 12   17.5   165.1W    900    5   125          
2005-03-02 18   18.5   164.7W    900    5   125          
2005-03-03 00   19.6   164.5W    915    5   115          
2005-03-03 06   20.5   164.0W    940    4    90          
2005-03-03 12   21.5   163.3W    940    4    90          
2005-03-03 18   22.7   162.9W    960    3    75          
2005-03-04 00   23.6   162.0W    965    3    70          
2005-03-04 06   24.2   160.1W    970    3    65          
2005-03-04 12   24.7   158.6W    975    2    60          
2005-03-04 18   25.1   155.5W    980    2    50          
2005-03-05 00   26.0   153.0W    986    1    35          
2005-03-05 06   27.0   150.0W    992    1    35          
2005-03-05 12   26.0   148.0W   1001    1    40          
Winds are 10-min average.

Tropical cyclone tracks developed by Michael Bath using operational warnings and advisories and Google Maps.


[Australian Severe Weather index] [Copyright Notice] [Email Contacts] [Search This Site] [Privacy Policy]
Document: tropical_cyclone_percy.htm Updated: 28 May 2013